Time;durP1;ratioP1;P1;durP2;ratioP2;P2;SDS_P1;SDS_P2;PMS_P1;PMS_P2;Temp;Humidity;BMP_temperature;BMP_pressure;BME280_temperature;BME280_humidity;BME280_pressure;Samples;Min_cycle;Max_cycle;Signal;HPM_P1;HPM_P2
2023/08/28 00:01:10;;;;;;;;;;;;;;;28.99;34.59;100301.09;5079235;28;1914;-33
2023/08/28 00:03:35;;;;;;;;;;;;;;;29.18;34.07;100294.84;5075472;28;1174;-37
2023/08/28 00:06:01;;;;;;;;;;;;;;;29.28;33.87;100293.59;5059491;28;1142;-35
2023/08/28 00:08:27;;;;;;;;;;;;;;;29.29;33.58;100289.84;5076047;28;1079;-37
2023/08/28 00:10:53;;;;;;;;;;;;;;;28.95;34.17;100289.78;5079193;28;1040;-37
2023/08/28 00:13:18;;;;;;;;;;;;;;;29.03;34.34;100278.78;5078921;28;1132;-34
2023/08/28 00:15:44;;;;;;;;;;;;;;;29.03;34.36;100277.97;5079015;28;1027;-33
2023/08/28 00:18:09;;;;;;;;;;;;;;;28.98;34.32;100281.28;5078603;28;1144;-37
2023/08/28 00:20:35;;;;;;;;;;;;;;;28.80;34.62;100276.44;5079462;28;1967;-35
2023/08/28 00:23:00;;;;;;;;;;;;;;;29.08;34.34;100268.19;5078917;28;1079;-32
2023/08/28 00:25:26;;;;;;;;;;;;;;;29.15;34.09;100270.03;5078450;28;1074;-36
2023/08/28 00:27:51;;;;;;;;;;;;;;;29.03;34.33;100267.16;5075196;28;1082;-35
2023/08/28 00:30:17;;;;;;;;;;;;;;;29.23;33.78;100274.44;5068588;28;1126;-35
2023/08/28 00:32:43;;;;;;;;;;;;;;;29.31;33.42;100277.75;5078481;28;1182;-37
2023/08/28 00:35:08;;;;;;;;;;;;;;;29.09;34.17;100266.31;5078669;28;1083;-36
2023/08/28 00:37:34;;;;;;;;;;;;;;;29.08;34.18;100270.88;5078806;28;1071;-36
2023/08/28 00:40:01;;;;;;;;;;;;;;;29.20;33.95;100268.38;5060332;28;1169;-35
2023/08/28 00:42:27;;;;;;;;;;;;;;;29.31;33.66;100266.91;5078505;28;1982;-32
2023/08/28 00:44:52;;;;;;;;;;;;;;;29.26;34.23;100271.31;5060069;28;1225;-37
2023/08/28 00:47:18;;;;;;;;;;;;;;;29.07;34.17;100269.22;5060547;28;1253;-33
2023/08/28 00:49:44;;;;;;;;;;;;;;;29.02;34.29;100266.31;5079049;28;1039;-35
2023/08/28 00:52:09;;;;;;;;;;;;;;;29.03;34.30;100265.25;5057360;28;1131;-36
2023/08/28 00:54:37;;;;;;;;;;;;;;;29.13;34.08;100270.25;5040275;28;1088;-36
2023/08/28 00:57:03;;;;;;;;;;;;;;;29.30;33.71;100276.09;5058917;28;1163;-36
2023/08/28 00:59:29;;;;;;;;;;;;;;;29.05;34.35;100270.47;5068091;28;1055;-37
2023/08/28 01:01:54;;;;;;;;;;;;;;;29.07;34.22;100276.50;5060500;28;1976;-35
2023/08/28 01:04:20;;;;;;;;;;;;;;;29.19;34.10;100271.31;5050585;28;1220;-32
2023/08/28 01:06:53;;;;;;;;;;;;;;;29.32;33.61;100275.88;5056510;28;1040;-33
2023/08/28 01:09:20;;;;;;;;;;;;;;;29.07;34.11;100268.38;5060414;28;1170;-37
2023/08/28 01:11:48;;;;;;;;;;;;;;;29.15;33.96;100276.31;5078407;28;1079;-34
2023/08/28 01:14:17;;;;;;;;;;;;;;;29.28;33.66;100272.75;5078370;28;1036;-34
2023/08/28 01:16:43;;;;;;;;;;;;;;;29.15;34.01;100284.44;5046567;28;1095;-35
2023/08/28 01:19:08;;;;;;;;;;;;;;;29.11;33.67;100283.19;5059844;28;1075;-32
2023/08/28 01:21:34;;;;;;;;;;;;;;;29.11;33.99;100288.59;5039700;28;1967;-36
2023/08/28 01:24:00;;;;;;;;;;;;;;;29.05;34.29;100282.13;5059449;28;1086;-35
2023/08/28 01:26:25;;;;;;;;;;;;;;;29.14;34.13;100285.47;5064333;28;1098;-37
2023/08/28 01:28:51;;;;;;;;;;;;;;;29.05;34.05;100284.00;5077737;28;1010;-34
2023/08/28 01:31:16;;;;;;;;;;;;;;;29.01;34.24;100291.69;5077790;28;1135;-33
2023/08/28 01:33:42;;;;;;;;;;;;;;;29.13;33.87;100285.69;5059512;28;1329;-34
2023/08/28 01:36:13;;;;;;;;;;;;;;;29.15;33.94;100278.16;5077429;28;1283;-35
2023/08/28 01:38:41;;;;;;;;;;;;;;;29.03;34.16;100277.97;5060025;28;1043;-33
2023/08/28 01:41:07;;;;;;;;;;;;;;;28.87;34.35;100279.16;5059343;28;1918;-36
2023/08/28 01:43:37;;;;;;;;;;;;;;;29.11;33.96;100277.78;5059824;28;1155;-34
2023/08/28 01:46:04;;;;;;;;;;;;;;;28.93;34.34;100290.00;5083152;28;1103;-33
2023/08/28 01:48:29;;;;;;;;;;;;;;;29.18;33.90;100284.00;5072530;28;1034;-33
2023/08/28 01:50:55;;;;;;;;;;;;;;;29.20;33.43;100279.22;5062953;28;1209;-32
2023/08/28 01:53:26;;;;;;;;;;;;;;;29.23;33.57;100279.84;5077398;28;1142;-35
2023/08/28 01:56:06;;;;;;;;;;;;;;;29.16;33.49;100271.72;5042038;28;1239;-34
2023/08/28 01:58:34;;;;;;;;;;;;;;;29.15;33.80;100278.16;5044031;28;2711;-38
2023/08/28 02:00:59;;;;;;;;;;;;;;;28.80;34.48;100277.28;5047523;28;1975;-33
2023/08/28 02:03:25;;;;;;;;;;;;;;;29.11;33.76;100282.34;5064731;28;1139;-36
2023/08/28 02:05:50;;;;;;;;;;;;;;;29.26;33.67;100279.44;5076760;28;1143;-34
2023/08/28 02:08:17;;;;;;;;;;;;;;;29.17;33.62;100286.94;5076826;28;1257;-35
2023/08/28 02:10:43;;;;;;;;;;;;;;;29.07;33.58;100287.34;5076992;28;1011;-37
2023/08/28 02:13:08;;;;;;;;;;;;;;;29.09;33.77;100285.25;5077014;28;1154;-34
2023/08/28 02:15:33;;;;;;;;;;;;;;;29.07;33.81;100290.88;5058276;28;2251;-33
2023/08/28 02:17:59;;;;;;;;;;;;;;;29.21;33.36;100278.16;5045364;28;1071;-32
2023/08/28 02:20:24;;;;;;;;;;;;;;;29.15;33.71;100283.59;5058980;28;1906;-37
2023/08/28 02:22:50;;;;;;;;;;;;;;;29.17;33.95;100276.94;5076885;28;1131;-35
2023/08/28 02:25:20;;;;;;;;;;;;;;;29.18;33.84;100286.72;5058629;28;1138;-34
2023/08/28 02:27:46;;;;;;;;;;;;;;;29.13;33.81;100281.09;5065719;28;1137;-32
2023/08/28 02:30:12;;;;;;;;;;;;;;;29.19;33.60;100276.72;5058922;28;1063;-38
2023/08/28 02:32:37;;;;;;;;;;;;;;;29.21;33.71;100275.47;5058437;28;1143;-35
2023/08/28 02:35:03;;;;;;;;;;;;;;;28.98;34.31;100269.63;5058855;28;1120;-36
2023/08/28 02:37:29;;;;;;;;;;;;;;;29.16;33.73;100275.25;5076303;28;1050;-36
2023/08/28 02:39:54;;;;;;;;;;;;;;;29.21;33.69;100280.06;5055701;28;1036;-34
2023/08/28 02:42:20;;;;;;;;;;;;;;;29.01;34.06;100274.63;5045385;28;1983;-33
2023/08/28 02:44:46;;;;;;;;;;;;;;;29.22;33.64;100276.31;5058429;28;1074;-33
2023/08/28 02:47:12;;;;;;;;;;;;;;;29.15;33.44;100275.47;5057829;28;1094;-35
2023/08/28 02:49:37;;;;;;;;;;;;;;;28.97;34.29;100274.22;5058591;28;1095;-37
2023/08/28 02:52:03;;;;;;;;;;;;;;;29.18;33.66;100270.47;5070172;28;1146;-37
2023/08/28 02:54:29;;;;;;;;;;;;;;;29.05;33.83;100274.00;5084680;28;1241;-35
2023/08/28 02:56:54;;;;;;;;;;;;;;;29.00;33.97;100279.22;5065143;28;1058;-33
2023/08/28 02:59:20;;;;;;;;;;;;;;;29.00;34.05;100281.91;5046890;28;1136;-34
2023/08/28 03:01:45;;;;;;;;;;;;;;;29.08;33.80;100280.88;5057905;28;1910;-37
2023/08/28 03:04:11;;;;;;;;;;;;;;;29.11;33.68;100285.91;5076090;28;1042;-35
2023/08/28 03:06:36;;;;;;;;;;;;;;;28.97;33.85;100279.63;5044681;28;1307;-38
2023/08/28 03:09:03;;;;;;;;;;;;;;;29.02;33.82;100285.25;5057410;28;1087;-34
2023/08/28 03:11:28;;;;;;;;;;;;;;;28.98;34.23;100278.56;5076141;28;1186;-33
2023/08/28 03:13:54;;;;;;;;;;;;;;;29.13;33.78;100286.50;5058440;28;1283;-33
2023/08/28 03:16:19;;;;;;;;;;;;;;;28.15;38.08;100273.13;5057282;28;1501;-37
2023/08/28 03:18:45;;;;;;;;;;;;;;;27.35;41.11;100272.44;5057929;28;1278;-36
2023/08/28 03:21:11;;;;;;;;;;;;;;;27.31;41.27;100276.56;5057678;28;1913;-35
2023/08/28 03:23:36;;;;;;;;;;;;;;;27.01;41.95;100274.84;5058198;28;1095;-33
2023/08/28 03:26:02;;;;;;;;;;;;;;;26.99;42.10;100260.69;5041272;28;1098;-34
2023/08/28 03:28:28;;;;;;;;;;;;;;;26.95;41.74;100264.81;5075173;28;1050;-38
2023/08/28 03:30:59;;;;;;;;;;;;;;;26.81;42.25;100260.31;5075907;28;1074;-36
2023/08/28 03:33:25;;;;;;;;;;;;;;;27.06;41.27;100268.06;5057718;28;1149;-36
2023/08/28 03:35:50;;;;;;;;;;;;;;;27.16;41.00;100271.25;5057800;28;1478;-39
2023/08/28 03:38:16;;;;;;;;;;;;;;;27.02;41.72;100271.16;5057278;28;2063;-37
2023/08/28 03:40:42;;;;;;;;;;;;;;;26.64;42.73;100274.06;5056032;28;1906;-37
2023/08/28 03:43:08;;;;;;;;;;;;;;;26.63;43.50;100273.22;5046389;28;1222;-34
2023/08/28 03:45:33;;;;;;;;;;;;;;;26.67;43.01;100272.84;5057613;28;1360;-34
2023/08/28 03:47:59;;;;;;;;;;;;;;;26.75;42.63;100270.88;5057684;28;1323;-34
2023/08/28 03:50:28;;;;;;;;;;;;;;;27.04;41.46;100268.25;5058009;28;1063;-34
2023/08/28 03:52:54;;;;;;;;;;;;;;;27.18;41.52;100271.88;5071865;28;1091;-38
2023/08/28 03:55:20;;;;;;;;;;;;;;;27.09;41.96;100286.56;5047791;28;1523;-33
2023/08/28 03:57:45;;;;;;;;;;;;;;;26.61;43.66;100283.38;5057749;28;1287;-35
2023/08/28 04:00:12;;;;;;;;;;;;;;;27.36;41.91;100287.59;5074491;28;1160;-35
2023/08/28 04:02:41;;;;;;;;;;;;;;;26.99;43.09;100298.47;5075537;28;1056;-38
2023/08/28 04:05:07;;;;;;;;;;;;;;;26.58;43.04;100294.53;5047365;28;1212;-37
2023/08/28 04:07:33;;;;;;;;;;;;;;;26.85;43.01;100289.44;5054739;28;1149;-38
2023/08/28 04:10:00;;;;;;;;;;;;;;;27.11;42.91;100287.22;5048453;28;1067;-39
2023/08/28 04:12:25;;;;;;;;;;;;;;;27.54;41.90;100285.44;5071446;28;2632;-36
2023/08/28 04:14:51;;;;;;;;;;;;;;;27.53;41.15;100281.09;5049476;28;1876;-38
2023/08/28 04:17:17;;;;;;;;;;;;;;;27.22;42.16;100285.84;5075014;28;2102;-37
2023/08/28 04:19:42;;;;;;;;;;;;;;;27.37;41.53;100291.16;5056257;28;2111;-33
2023/08/28 04:22:08;;;;;;;;;;;;;;;27.29;41.95;100289.44;5078699;28;2099;-36
2023/08/28 04:24:33;;;;;;;;;;;;;;;27.44;41.38;100288.50;5064787;28;2117;-35
2023/08/28 04:26:59;;;;;;;;;;;;;;;26.97;41.65;100284.34;5050762;28;2290;-31
2023/08/28 04:29:24;;;;;;;;;;;;;;;27.67;41.66;100290.94;5054496;28;1051;-42
2023/08/28 04:31:50;;;;;;;;;;;;;;;28.02;40.94;100282.03;5040417;28;1147;-33
2023/08/28 04:34:16;;;;;;;;;;;;;;;28.06;40.94;100293.28;5042679;28;1389;-39
2023/08/28 04:36:41;;;;;;;;;;;;;;;27.65;42.06;100289.47;5078388;28;999;-36
2023/08/28 04:39:07;;;;;;;;;;;;;;;28.07;40.38;100286.81;5078455;28;1178;-35
2023/08/28 04:41:33;;;;;;;;;;;;;;;27.54;42.26;100278.19;5060137;28;1909;-36
2023/08/28 04:43:58;;;;;;;;;;;;;;;27.77;40.75;100282.50;5077898;28;1094;-37
2023/08/28 04:46:24;;;;;;;;;;;;;;;27.89;41.19;100281.94;5078648;28;1131;-37
2023/08/28 04:48:50;;;;;;;;;;;;;;;27.55;40.91;100273.59;5060012;28;1537;-36
2023/08/28 04:51:15;;;;;;;;;;;;;;;27.48;41.92;100273.56;5078318;28;1190;-35
2023/08/28 04:53:41;;;;;;;;;;;;;;;26.92;43.55;100270.59;5059767;28;1295;-36
2023/08/28 04:56:06;;;;;;;;;;;;;;;27.67;41.06;100272.03;5059962;28;2204;-36
2023/08/28 04:58:33;;;;;;;;;;;;;;;26.84;43.88;100276.13;5078076;28;1131;-38
2023/08/28 05:00:59;;;;;;;;;;;;;;;27.55;41.38;100276.31;5059652;28;2270;-34
2023/08/28 05:03:25;;;;;;;;;;;;;;;27.61;41.18;100284.44;5077847;28;1004;-39
2023/08/28 05:05:51;;;;;;;;;;;;;;;27.15;42.75;100283.06;5051096;28;1095;-38
2023/08/28 05:08:17;;;;;;;;;;;;;;;26.61;45.38;100282.56;5055151;28;1044;-34
2023/08/28 05:10:43;;;;;;;;;;;;;;;27.14;43.76;100287.63;5053140;28;1169;-37
2023/08/28 05:13:09;;;;;;;;;;;;;;;27.07;44.65;100281.34;5070860;28;1004;-37
2023/08/28 05:15:35;;;;;;;;;;;;;;;27.49;43.13;100276.06;5059443;28;1218;-36
2023/08/28 05:18:00;;;;;;;;;;;;;;;27.54;43.78;100272.78;5059328;28;892;-33
2023/08/28 05:20:26;;;;;;;;;;;;;;;27.18;44.43;100273.75;5059649;28;1914;-38
2023/08/28 05:22:51;;;;;;;;;;;;;;;27.25;44.39;100269.25;5077582;28;992;-33
2023/08/28 05:25:17;;;;;;;;;;;;;;;27.14;44.32;100267.91;5077501;28;1919;-38
2023/08/28 05:27:43;;;;;;;;;;;;;;;27.45;42.65;100266.69;5059052;28;1086;-39
2023/08/28 05:30:10;;;;;;;;;;;;;;;27.45;42.85;100271.25;5050693;28;1210;-36
2023/08/28 05:32:36;;;;;;;;;;;;;;;27.38;43.48;100263.09;5054119;28;1484;-37
2023/08/28 05:35:03;;;;;;;;;;;;;;;26.86;44.92;100264.09;5059463;28;1367;-34
2023/08/28 05:37:29;;;;;;;;;;;;;;;27.48;42.87;100268.16;5059256;28;1198;-38
2023/08/28 05:39:54;;;;;;;;;;;;;;;27.45;42.45;100266.69;5059424;28;1216;-36
2023/08/28 05:42:20;;;;;;;;;;;;;;;27.36;43.41;100255.19;5074729;28;1909;-34
2023/08/28 05:44:46;;;;;;;;;;;;;;;27.68;41.72;100259.34;5047711;28;2003;-37
2023/08/28 05:47:13;;;;;;;;;;;;;;;27.72;42.14;100272.31;5059192;28;1231;-34
2023/08/28 05:49:39;;;;;;;;;;;;;;;28.01;41.20;100269.50;5076682;28;1026;-36
2023/08/28 05:52:05;;;;;;;;;;;;;;;28.09;40.99;100269.34;5059034;28;1208;-38
2023/08/28 05:54:30;;;;;;;;;;;;;;;28.34;39.50;100270.75;5062791;28;1050;-34
2023/08/28 05:56:56;;;;;;;;;;;;;;;28.13;39.94;100275.19;5064215;28;2715;-37
2023/08/28 05:59:21;;;;;;;;;;;;;;;27.35;42.33;100288.66;5082566;28;1095;-34
2023/08/28 06:01:47;;;;;;;;;;;;;;;27.84;41.19;100290.66;5076765;28;1903;-38
2023/08/28 06:04:12;;;;;;;;;;;;;;;28.30;40.36;100286.50;5058640;28;1059;-36
2023/08/28 06:06:41;;;;;;;;;;;;;;;28.20;39.45;100278.78;5058285;28;1181;-31
2023/08/28 06:09:07;;;;;;;;;;;;;;;28.72;38.39;100283.75;5058316;28;1094;-34
2023/08/28 06:11:33;;;;;;;;;;;;;;;28.54;38.72;100289.75;5076546;28;1150;-39
2023/08/28 06:13:58;;;;;;;;;;;;;;;28.75;38.72;100290.59;5057773;28;1119;-37
2023/08/28 06:16:24;;;;;;;;;;;;;;;28.02;39.66;100287.44;5076671;28;1047;-36
2023/08/28 06:18:49;;;;;;;;;;;;;;;27.97;40.06;100284.47;5061733;28;890;-40
2023/08/28 06:21:16;;;;;;;;;;;;;;;27.90;40.45;100297.13;5064298;28;1922;-31
2023/08/28 06:23:42;;;;;;;;;;;;;;;28.58;38.94;100293.69;5076045;28;1034;-36
2023/08/28 06:26:07;;;;;;;;;;;;;;;28.37;38.90;100291.97;5050885;28;2700;-36
2023/08/28 06:28:33;;;;;;;;;;;;;;;28.48;38.30;100291.38;5052460;28;1100;-35
2023/08/28 06:30:59;;;;;;;;;;;;;;;28.93;36.50;100298.13;5058058;28;1206;-32
2023/08/28 06:33:25;;;;;;;;;;;;;;;29.36;36.22;100293.41;5058345;28;1098;-35
2023/08/28 06:35:51;;;;;;;;;;;;;;;29.21;36.27;100301.72;5076170;28;1103;-36
2023/08/28 06:38:17;;;;;;;;;;;;;;;29.32;35.93;100292.13;5075784;28;1146;-37
2023/08/28 06:40:46;;;;;;;;;;;;;;;29.08;37.54;100289.00;5062564;28;1964;-35
2023/08/28 06:43:12;;;;;;;;;;;;;;;29.13;36.72;100293.81;5065856;28;882;-34
2023/08/28 06:45:37;;;;;;;;;;;;;;;28.63;37.45;100281.44;5072015;28;1008;-38
2023/08/28 06:48:03;;;;;;;;;;;;;;;29.17;36.24;100281.50;5070697;28;1424;-34
2023/08/28 06:50:28;;;;;;;;;;;;;;;29.21;36.16;100291.72;5058499;28;1084;-35
2023/08/28 06:52:54;;;;;;;;;;;;;;;28.90;36.58;100287.72;5075790;28;1170;-36
2023/08/28 06:55:19;;;;;;;;;;;;;;;28.91;37.39;100292.06;5060699;28;2301;-35
2023/08/28 06:57:47;;;;;;;;;;;;;;;28.67;37.99;100293.50;5066218;28;1166;-33
2023/08/28 07:00:13;;;;;;;;;;;;;;;28.72;38.75;100299.13;5055676;28;1222;-37
2023/08/28 07:02:40;;;;;;;;;;;;;;;28.87;37.91;100296.25;5062593;28;1906;-35
2023/08/28 07:05:06;;;;;;;;;;;;;;;28.81;36.94;100295.19;5061786;28;1304;-32
2023/08/28 07:07:31;;;;;;;;;;;;;;;28.82;36.49;100294.16;5067246;28;1084;-33
2023/08/28 07:09:57;;;;;;;;;;;;;;;29.40;35.51;100297.34;5055658;28;1321;-31
2023/08/28 07:12:22;;;;;;;;;;;;;;;30.19;34.87;100303.84;5055101;28;1392;-34
2023/08/28 07:14:56;;;;;;;;;;;;;;;30.18;34.57;100307.59;5069822;28;1285;-33
2023/08/28 07:17:21;;;;;;;;;;;;;;;29.33;36.29;100297.34;5067027;28;1309;-35
2023/08/28 07:19:47;;;;;;;;;;;;;;;29.87;36.03;100304.59;5059850;28;1389;-39
2023/08/28 07:22:12;;;;;;;;;;;;;;;29.98;35.30;100300.38;5055297;28;1906;-39
2023/08/28 07:24:38;;;;;;;;;;;;;;;29.81;36.08;100298.13;5055169;28;1384;-39
2023/08/28 07:27:04;;;;;;;;;;;;;;;30.37;34.52;100299.63;5071309;28;2609;-41
2023/08/28 07:29:29;;;;;;;;;;;;;;;30.45;34.15;100296.66;5061531;28;1221;-35
2023/08/28 07:31:55;;;;;;;;;;;;;;;30.76;33.26;100296.91;5075625;28;1122;-36
2023/08/28 07:34:20;;;;;;;;;;;;;;;30.18;33.82;100303.00;5075522;28;1042;-35
2023/08/28 07:36:46;;;;;;;;;;;;;;;30.69;32.62;100305.09;5075265;28;1070;-35
2023/08/28 07:39:11;;;;;;;;;;;;;;;31.14;31.82;100303.34;5059392;28;1145;-37
2023/08/28 07:41:37;;;;;;;;;;;;;;;31.42;30.60;100301.25;5056092;28;1910;-34
2023/08/28 07:44:02;;;;;;;;;;;;;;;31.16;30.74;100309.41;5062139;28;1169;-34
2023/08/28 07:46:30;;;;;;;;;;;;;;;30.83;31.79;100303.13;5075614;28;1154;-31
2023/08/28 07:48:56;;;;;;;;;;;;;;;31.33;31.17;100306.13;5075444;28;1142;-33
2023/08/28 07:51:22;;;;;;;;;;;;;;;31.61;30.55;100302.97;5075318;28;1034;-38
2023/08/28 07:53:47;;;;;;;;;;;;;;;31.80;31.18;100302.94;5074329;28;1091;-39
2023/08/28 07:56:13;;;;;;;;;;;;;;;32.06;30.20;100302.91;5079148;28;1828;-36
2023/08/28 07:58:38;;;;;;;;;;;;;;;32.18;30.00;100303.78;5079128;28;991;-39
2023/08/28 08:01:05;;;;;;;;;;;;;;;32.09;29.27;100297.84;5078618;28;1902;-39
2023/08/28 08:03:31;;;;;;;;;;;;;;;32.18;29.25;100305.69;5076490;28;1178;-40
2023/08/28 08:05:57;;;;;;;;;;;;;;;32.21;28.53;100310.69;5061109;28;1119;-39
2023/08/28 08:08:22;;;;;;;;;;;;;;;31.88;28.97;100305.38;5061149;28;1163;-37
2023/08/28 08:10:48;;;;;;;;;;;;;;;32.12;28.42;100305.56;5079233;28;1035;-39
2023/08/28 08:13:13;;;;;;;;;;;;;;;32.13;28.59;100303.66;5078801;28;1122;-39
2023/08/28 08:15:39;;;;;;;;;;;;;;;31.50;29.95;100309.09;5078405;28;1098;-40
2023/08/28 08:18:04;;;;;;;;;;;;;;;31.57;28.64;100299.00;5077837;28;1273;-42
2023/08/28 08:20:31;;;;;;;;;;;;;;;31.74;29.03;100295.69;5068622;28;1902;-39
2023/08/28 08:22:56;;;;;;;;;;;;;;;31.76;28.82;100288.16;5060810;28;1340;-32
2023/08/28 08:25:22;;;;;;;;;;;;;;;32.02;28.57;100286.19;5078393;28;1852;-33
2023/08/28 08:27:48;;;;;;;;;;;;;;;32.79;27.75;100299.44;5065715;28;1107;-32
2023/08/28 08:30:13;;;;;;;;;;;;;;;33.09;26.60;100284.94;5077816;28;1190;-38
2023/08/28 08:32:39;;;;;;;;;;;;;;;32.72;27.33;100288.63;5067787;28;1281;-31
2023/08/28 08:35:05;;;;;;;;;;;;;;;32.03;28.42;100285.16;5058559;28;1337;-32
2023/08/28 08:37:33;;;;;;;;;;;;;;;32.00;27.30;100282.88;5076619;28;1207;-37
2023/08/28 08:39:58;;;;;;;;;;;;;;;32.25;27.21;100276.50;5077057;28;1011;-32
2023/08/28 08:42:24;;;;;;;;;;;;;;;32.38;27.08;100284.47;5077805;28;2062;-37
2023/08/28 08:44:49;;;;;;;;;;;;;;;32.53;27.16;100277.00;5078366;28;1087;-38
2023/08/28 08:47:16;;;;;;;;;;;;;;;32.37;26.57;100276.53;5077416;28;1139;-39
2023/08/28 08:49:42;;;;;;;;;;;;;;;32.64;26.78;100269.91;5077887;28;1098;-39
2023/08/28 08:52:08;;;;;;;;;;;;;;;32.68;26.78;100276.56;5078247;28;1135;-39
2023/08/28 08:54:37;;;;;;;;;;;;;;;32.46;26.01;100277.06;5077813;28;1015;-36
2023/08/28 08:57:04;;;;;;;;;;;;;;;32.17;26.36;100276.81;5073501;28;1876;-36
2023/08/28 08:59:30;;;;;;;;;;;;;;;32.98;24.84;100284.66;5077737;28;1159;-38
2023/08/28 09:01:55;;;;;;;;;;;;;;;32.96;25.22;100281.38;5060226;28;1906;-37
2023/08/28 09:04:21;;;;;;;;;;;;;;;32.98;25.30;100276.50;5060130;28;1147;-37
2023/08/28 09:06:47;;;;;;;;;;;;;;;32.62;26.08;100273.72;5076918;28;1210;-37
2023/08/28 09:09:12;;;;;;;;;;;;;;;32.53;25.80;100269.66;5078082;28;1023;-38
2023/08/28 09:11:40;;;;;;;;;;;;;;;33.15;24.69;100272.28;5077610;28;1036;-38
2023/08/28 09:14:05;;;;;;;;;;;;;;;33.05;25.74;100279.09;5060366;28;1071;-38
2023/08/28 09:16:33;;;;;;;;;;;;;;;32.89;26.61;100282.53;5077614;28;1086;-39
2023/08/28 09:18:58;;;;;;;;;;;;;;;33.03;26.61;100275.81;5077503;28;1194;-38
2023/08/28 09:21:24;;;;;;;;;;;;;;;32.76;26.87;100273.50;5057961;28;1981;-38
2023/08/28 09:23:50;;;;;;;;;;;;;;;32.24;27.44;100269.41;5059437;28;1107;-34
2023/08/28 09:26:19;;;;;;;;;;;;;;;32.26;28.04;100267.28;5068767;28;2686;-38
2023/08/28 09:29:00;;;;;;;;;;;;;;;32.21;27.66;100259.81;5056981;28;1434;-38
2023/08/28 09:31:33;;;;;;;;;;;;;;;31.97;28.49;100259.69;5070870;28;1110;-37
2023/08/28 09:33:59;;;;;;;;;;;;;;;31.70;28.67;100253.72;5069988;28;1027;-39
2023/08/28 09:36:25;;;;;;;;;;;;;;;31.79;29.15;100246.91;5077205;28;1035;-38
2023/08/28 09:38:50;;;;;;;;;;;;;;;31.52;29.36;100247.19;5077625;28;1209;-39
2023/08/28 09:41:16;;;;;;;;;;;;;;;31.42;29.24;100255.03;5076936;28;1910;-38
2023/08/28 09:43:42;;;;;;;;;;;;;;;31.60;28.97;100244.19;5059181;28;1023;-35
2023/08/28 09:46:07;;;;;;;;;;;;;;;31.63;29.07;100260.03;5063723;28;1117;-38
2023/08/28 09:48:33;;;;;;;;;;;;;;;31.55;28.95;100243.22;5059215;28;1178;-38
2023/08/28 09:51:04;;;;;;;;;;;;;;;31.48;29.31;100252.25;5070469;28;1151;-37
2023/08/28 09:53:29;;;;;;;;;;;;;;;31.67;29.11;100252.28;5070651;28;1020;-37
2023/08/28 09:55:55;;;;;;;;;;;;;;;31.39;29.48;100250.91;5076382;28;1846;-38
2023/08/28 09:58:24;;;;;;;;;;;;;;;31.15;29.80;100245.22;5063571;28;1082;-38
2023/08/28 10:00:50;;;;;;;;;;;;;;;31.47;29.31;100249.75;5076399;28;1965;-40
2023/08/28 10:03:15;;;;;;;;;;;;;;;31.67;28.83;100246.00;5076773;28;1134;-34
2023/08/28 10:05:42;;;;;;;;;;;;;;;32.13;27.86;100250.06;5076667;28;1213;-35
2023/08/28 10:08:08;;;;;;;;;;;;;;;32.32;27.71;100247.31;5076349;28;1179;-40
2023/08/28 10:10:34;;;;;;;;;;;;;;;32.05;27.56;100242.22;5076692;28;1091;-38
2023/08/28 10:13:03;;;;;;;;;;;;;;;32.36;27.36;100240.34;5077068;28;965;-43
2023/08/28 10:15:29;;;;;;;;;;;;;;;32.39;26.98;100244.50;5076669;28;1023;-33
2023/08/28 10:17:56;;;;;;;;;;;;;;;32.35;26.98;100237.84;5057336;28;1056;-39
2023/08/28 10:20:22;;;;;;;;;;;;;;;32.22;27.21;100234.25;5068666;28;876;-39
2023/08/28 10:22:48;;;;;;;;;;;;;;;32.27;27.38;100239.00;5056116;28;1910;-34
2023/08/28 10:25:16;;;;;;;;;;;;;;;32.09;27.90;100229.00;5056876;28;2353;-38
2023/08/28 10:27:41;;;;;;;;;;;;;;;32.12;27.75;100217.66;5061104;28;1118;-37
2023/08/28 10:30:08;;;;;;;;;;;;;;;32.26;27.26;100215.56;5064275;28;1070;-38
2023/08/28 10:32:33;;;;;;;;;;;;;;;32.20;27.94;100219.22;5057897;28;909;-38
2023/08/28 10:34:59;;;;;;;;;;;;;;;32.25;27.66;100213.91;5058478;28;1226;-33
2023/08/28 10:37:24;;;;;;;;;;;;;;;32.21;27.75;100221.72;5058249;28;1123;-40
2023/08/28 10:39:50;;;;;;;;;;;;;;;32.09;27.39;100216.22;5075600;28;1015;-40
2023/08/28 10:42:19;;;;;;;;;;;;;;;31.97;27.63;100216.16;5070061;28;1910;-39
2023/08/28 10:44:44;;;;;;;;;;;;;;;31.91;28.32;100225.22;5040539;28;964;-37
2023/08/28 10:47:14;;;;;;;;;;;;;;;32.79;26.24;100217.72;5044288;28;1239;-36
2023/08/28 10:49:39;;;;;;;;;;;;;;;33.84;23.55;100214.38;5061482;28;1162;-42
2023/08/28 10:52:05;;;;;;;;;;;;;;;33.89;22.89;100213.63;5072870;28;1219;-38
2023/08/28 10:54:37;;;;;;;;;;;;;;;34.14;22.42;100209.75;5060072;28;1213;-36
2023/08/28 10:57:12;;;;;;;;;;;;;;;34.05;22.43;100214.75;5067725;28;1867;-39
2023/08/28 10:59:41;;;;;;;;;;;;;;;34.37;22.26;100202.53;5074219;28;1179;-38
2023/08/28 11:02:06;;;;;;;;;;;;;;;34.83;21.89;100204.41;5074798;28;1894;-39
2023/08/28 11:04:39;;;;;;;;;;;;;;;34.51;22.27;100211.25;5075197;28;1182;-39
2023/08/28 11:07:06;;;;;;;;;;;;;;;34.75;22.36;100199.34;5075159;28;939;-34
2023/08/28 11:09:33;;;;;;;;;;;;;;;34.84;22.24;100197.00;5075891;28;1095;-37
2023/08/28 11:12:01;;;;;;;;;;;;;;;34.59;21.09;100204.53;5074838;28;1185;-38
2023/08/28 11:14:26;;;;;;;;;;;;;;;34.12;22.91;100200.97;5069043;28;1135;-32
2023/08/28 11:17:05;;;;;;;;;;;;;;;33.63;23.05;100199.50;5075665;28;1008;-38
2023/08/28 11:19:30;;;;;;;;;;;;;;;34.03;22.47;100200.53;5075379;28;1059;-38
2023/08/28 11:21:59;;;;;;;;;;;;;;;33.54;23.75;100185.38;5075532;28;1907;-30
2023/08/28 11:24:25;;;;;;;;;;;;;;;32.36;24.08;100187.78;5062100;28;1128;-30
2023/08/28 11:26:50;;;;;;;;;;;;;;;31.44;25.96;100176.84;5063846;28;2491;-37
2023/08/28 11:29:25;;;;;;;;;;;;;;;32.29;25.83;100174.28;5069894;28;1190;-34
2023/08/28 11:31:51;;;;;;;;;;;;;;;31.92;26.59;100167.03;5064551;28;1411;-30
2023/08/28 11:34:16;;;;;;;;;;;;;;;31.71;27.12;100176.50;5063660;28;1363;-33
2023/08/28 11:36:42;;;;;;;;;;;;;;;31.79;27.62;100167.19;5066161;28;1376;-31
2023/08/28 11:39:19;;;;;;;;;;;;;;;31.33;28.99;100170.25;5079734;28;1110;-31
2023/08/28 11:41:44;;;;;;;;;;;;;;;31.84;28.61;100173.63;5079542;28;1977;-30
2023/08/28 11:44:13;;;;;;;;;;;;;;;31.83;28.92;100176.59;5061001;28;1075;-32
2023/08/28 11:46:38;;;;;;;;;;;;;;;31.34;30.48;100167.28;5060957;28;1316;-36
2023/08/28 11:49:07;;;;;;;;;;;;;;;31.07;30.67;100170.28;5079301;28;1079;-35
2023/08/28 11:51:32;;;;;;;;;;;;;;;31.03;31.60;100175.34;5070798;28;1469;-35
2023/08/28 11:53:58;;;;;;;;;;;;;;;30.92;31.46;100168.75;5059245;28;1454;-36
2023/08/28 11:56:24;;;;;;;;;;;;;;;29.44;35.19;100173.13;5061771;28;2666;-33
2023/08/28 11:58:49;;;;;;;;;;;;;;;25.73;40.99;100161.03;5059072;28;1146;-35
2023/08/28 12:01:15;;;;;;;;;;;;;;;24.14;43.06;100163.41;5045349;28;1922;-28
2023/08/28 12:03:41;;;;;;;;;;;;;;;23.53;43.43;100162.16;5058874;28;1327;-30
2023/08/28 12:06:07;;;;;;;;;;;;;;;22.81;44.48;100156.56;5066787;28;1048;-35
2023/08/28 12:08:36;;;;;;;;;;;;;;;22.53;45.37;100157.72;5077109;28;1118;-32
2023/08/28 12:11:03;;;;;;;;;;;;;;;22.32;45.49;100145.63;5064314;28;1075;-34
2023/08/28 12:13:30;;;;;;;;;;;;;;;22.12;46.11;100153.16;5058859;28;1379;-32
2023/08/28 12:16:05;;;;;;;;;;;;;;;21.96;46.36;100153.91;5058381;28;1446;-34
2023/08/28 12:18:44;;;;;;;;;;;;;;;21.74;46.27;100148.13;5061157;28;1309;-33
2023/08/28 12:21:09;;;;;;;;;;;;;;;21.63;46.99;100155.47;5062240;28;1979;-36
2023/08/28 12:23:44;;;;;;;;;;;;;;;21.55;47.67;100150.06;5071764;28;1395;-33
2023/08/28 12:26:09;;;;;;;;;;;;;;;21.50;48.23;100157.72;5066536;28;2427;-36
2023/08/28 12:28:35;;;;;;;;;;;;;;;21.42;48.52;100153.16;5078574;28;1032;-33
2023/08/28 12:31:00;;;;;;;;;;;;;;;21.41;48.42;100155.00;5078426;28;1162;-32
2023/08/28 12:33:26;;;;;;;;;;;;;;;21.44;48.58;100143.13;5078456;28;899;-34
2023/08/28 12:35:51;;;;;;;;;;;;;;;21.43;49.04;100144.16;5059111;28;1080;-35
2023/08/28 12:38:17;;;;;;;;;;;;;;;23.08;45.75;100136.59;5048359;28;1104;-32
2023/08/28 12:40:44;;;;;;;;;;;;;;;26.52;37.90;100138.88;5076891;28;1968;-31
2023/08/28 12:43:10;;;;;;;;;;;;;;;27.93;35.11;100138.06;5078429;28;1142;-30